sensor_id;sensor_type;location;lat;lon;timestamp;pressure;altitude;pressure_sealevel;temperature;humidity
30682;BME280;17439;48.092;11.842;2023-12-22T00:02:14;93879.66;;;7.54;71.07
30682;BME280;17439;48.092;11.842;2023-12-22T00:04:40;93867.88;;;7.58;69.25
30682;BME280;17439;48.092;11.842;2023-12-22T00:07:07;93866.38;;;7.49;69.55
30682;BME280;17439;48.092;11.842;2023-12-22T00:09:34;93864.00;;;7.47;68.37
30682;BME280;17439;48.092;11.842;2023-12-22T00:12:00;93901.34;;;7.36;68.94
30682;BME280;17439;48.092;11.842;2023-12-22T00:14:27;93969.56;;;7.37;66.60
30682;BME280;17439;48.092;11.842;2023-12-22T00:16:54;94025.94;;;7.21;64.68
30682;BME280;17439;48.092;11.842;2023-12-22T00:19:20;94017.31;;;6.98;62.29
30682;BME280;17439;48.092;11.842;2023-12-22T00:21:47;93995.53;;;6.64;62.49
30682;BME280;17439;48.092;11.842;2023-12-22T00:24:14;94020.94;;;6.37;62.07
30682;BME280;17439;48.092;11.842;2023-12-22T00:26:41;94012.06;;;5.93;63.29
30682;BME280;17439;48.092;11.842;2023-12-22T00:29:07;94009.94;;;5.55;64.78
30682;BME280;17439;48.092;11.842;2023-12-22T00:31:34;94019.78;;;5.11;66.08
30682;BME280;17439;48.092;11.842;2023-12-22T00:34:01;94018.06;;;4.75;67.40
30682;BME280;17439;48.092;11.842;2023-12-22T00:36:28;94012.06;;;4.46;68.65
30682;BME280;17439;48.092;11.842;2023-12-22T00:38:55;94005.13;;;4.23;70.13
30682;BME280;17439;48.092;11.842;2023-12-22T00:41:21;93986.25;;;4.05;70.93
30682;BME280;17439;48.092;11.842;2023-12-22T00:43:48;94000.22;;;3.93;71.77
30682;BME280;17439;48.092;11.842;2023-12-22T00:46:15;94012.25;;;3.82;72.38
30682;BME280;17439;48.092;11.842;2023-12-22T00:48:42;94011.22;;;3.69;73.37
30682;BME280;17439;48.092;11.842;2023-12-22T00:51:08;94004.84;;;3.65;73.85
30682;BME280;17439;48.092;11.842;2023-12-22T00:53:35;94007.34;;;3.61;74.25
30682;BME280;17439;48.092;11.842;2023-12-22T00:56:02;93998.03;;;3.59;74.83
30682;BME280;17439;48.092;11.842;2023-12-22T00:58:30;94017.38;;;3.56;75.21
30682;BME280;17439;48.092;11.842;2023-12-22T01:00:57;94014.69;;;3.56;75.49
30682;BME280;17439;48.092;11.842;2023-12-22T01:03:23;94013.91;;;3.55;75.78
30682;BME280;17439;48.092;11.842;2023-12-22T01:05:50;94015.00;;;3.54;76.02
30682;BME280;17439;48.092;11.842;2023-12-22T01:08:17;94023.03;;;3.54;76.32
30682;BME280;17439;48.092;11.842;2023-12-22T01:10:44;94032.69;;;3.55;76.28
30682;BME280;17439;48.092;11.842;2023-12-22T01:13:11;94021.78;;;3.52;76.61
30682;BME280;17439;48.092;11.842;2023-12-22T01:15:38;94034.88;;;3.53;76.60
30682;BME280;17439;48.092;11.842;2023-12-22T01:18:04;94038.03;;;3.55;76.90
30682;BME280;17439;48.092;11.842;2023-12-22T01:20:31;94027.31;;;3.55;76.96
30682;BME280;17439;48.092;11.842;2023-12-22T01:22:58;94018.97;;;3.57;77.01
30682;BME280;17439;48.092;11.842;2023-12-22T01:25:25;94015.50;;;3.56;77.24
30682;BME280;17439;48.092;11.842;2023-12-22T01:27:51;94020.75;;;3.61;77.04
30682;BME280;17439;48.092;11.842;2023-12-22T01:30:18;94023.75;;;3.60;77.36
30682;BME280;17439;48.092;11.842;2023-12-22T01:32:45;94029.41;;;3.58;77.44
30682;BME280;17439;48.092;11.842;2023-12-22T01:35:12;94039.00;;;3.59;77.61
30682;BME280;17439;48.092;11.842;2023-12-22T01:37:38;94036.84;;;3.61;77.54
30682;BME280;17439;48.092;11.842;2023-12-22T01:40:06;94041.09;;;3.62;77.80
30682;BME280;17439;48.092;11.842;2023-12-22T01:42:33;94053.41;;;3.63;77.87
30682;BME280;17439;48.092;11.842;2023-12-22T01:44:59;94045.97;;;3.60;77.75
30682;BME280;17439;48.092;11.842;2023-12-22T01:47:26;94044.88;;;3.61;77.61
30682;BME280;17439;48.092;11.842;2023-12-22T01:49:53;94056.38;;;3.62;77.64
30682;BME280;17439;48.092;11.842;2023-12-22T01:52:20;94044.28;;;3.65;77.56
30682;BME280;17439;48.092;11.842;2023-12-22T01:54:47;94039.22;;;3.63;77.33
30682;BME280;17439;48.092;11.842;2023-12-22T01:57:15;94059.06;;;3.62;77.51
30682;BME280;17439;48.092;11.842;2023-12-22T01:59:44;94049.44;;;3.61;77.30
30682;BME280;17439;48.092;11.842;2023-12-22T02:02:11;94043.88;;;3.57;77.12
30682;BME280;17439;48.092;11.842;2023-12-22T02:04:39;94032.38;;;3.57;77.17
30682;BME280;17439;48.092;11.842;2023-12-22T02:07:08;94039.41;;;3.53;76.98
30682;BME280;17439;48.092;11.842;2023-12-22T02:09:34;94031.69;;;3.51;77.05
30682;BME280;17439;48.092;11.842;2023-12-22T02:12:01;94034.19;;;3.48;77.31
30682;BME280;17439;48.092;11.842;2023-12-22T02:14:28;94029.13;;;3.46;77.19
30682;BME280;17439;48.092;11.842;2023-12-22T02:17:02;94045.69;;;3.48;76.84
30682;BME280;17439;48.092;11.842;2023-12-22T02:19:40;94051.94;;;3.43;77.11
30682;BME280;17439;48.092;11.842;2023-12-22T02:22:08;94061.09;;;3.42;77.34
30682;BME280;17439;48.092;11.842;2023-12-22T02:24:36;94065.63;;;3.42;77.50
30682;BME280;17439;48.092;11.842;2023-12-22T02:30:01;94073.19;;;3.40;77.50
30682;BME280;17439;48.092;11.842;2023-12-22T02:32:36;94063.66;;;3.34;77.16
30682;BME280;17439;48.092;11.842;2023-12-22T02:35:07;94058.28;;;3.34;77.06
30682;BME280;17439;48.092;11.842;2023-12-22T02:37:36;94051.38;;;3.33;77.42
30682;BME280;17439;48.092;11.842;2023-12-22T02:40:03;94031.91;;;3.27;76.82
30682;BME280;17439;48.092;11.842;2023-12-22T02:42:32;94032.69;;;3.27;77.65
30682;BME280;17439;48.092;11.842;2023-12-22T02:44:59;94031.91;;;3.27;78.03
30682;BME280;17439;48.092;11.842;2023-12-22T02:47:26;94039.16;;;3.26;78.24
30682;BME280;17439;48.092;11.842;2023-12-22T02:49:53;94056.31;;;3.25;78.57
30682;BME280;17439;48.092;11.842;2023-12-22T02:52:20;94044.81;;;3.25;78.55
30682;BME280;17439;48.092;11.842;2023-12-22T02:54:47;94038.06;;;3.27;78.74
30682;BME280;17439;48.092;11.842;2023-12-22T02:57:14;94033.22;;;3.30;78.87
30682;BME280;17439;48.092;11.842;2023-12-22T02:59:40;94026.16;;;3.34;78.75
30682;BME280;17439;48.092;11.842;2023-12-22T03:02:07;94033.41;;;3.33;78.90
30682;BME280;17439;48.092;11.842;2023-12-22T03:04:34;94029.34;;;3.36;78.97
30682;BME280;17439;48.092;11.842;2023-12-22T03:07:01;94030.91;;;3.37;79.05
30682;BME280;17439;48.092;11.842;2023-12-22T03:09:27;94020.72;;;3.39;79.07
30682;BME280;17439;48.092;11.842;2023-12-22T03:11:54;94004.00;;;3.42;78.92
30682;BME280;17439;48.092;11.842;2023-12-22T03:14:21;93999.16;;;3.44;79.14
30682;BME280;17439;48.092;11.842;2023-12-22T03:16:48;94003.09;;;3.47;79.19
30682;BME280;17439;48.092;11.842;2023-12-22T03:19:14;93990.72;;;3.51;79.01
30682;BME280;17439;48.092;11.842;2023-12-22T03:21:41;93987.44;;;3.54;78.88
30682;BME280;17439;48.092;11.842;2023-12-22T03:24:08;93992.00;;;3.53;78.81
30682;BME280;17439;48.092;11.842;2023-12-22T03:26:34;93984.44;;;3.55;78.71
30682;BME280;17439;48.092;11.842;2023-12-22T03:29:01;93995.94;;;3.56;78.91
30682;BME280;17439;48.092;11.842;2023-12-22T03:31:28;93995.34;;;3.59;78.88
30682;BME280;17439;48.092;11.842;2023-12-22T03:33:55;93993.97;;;3.61;78.70
30682;BME280;17439;48.092;11.842;2023-12-22T03:36:22;93995.53;;;3.62;78.83
30682;BME280;17439;48.092;11.842;2023-12-22T03:38:48;93984.81;;;3.62;78.63
30682;BME280;17439;48.092;11.842;2023-12-22T03:41:15;93998.41;;;3.66;78.81
30682;BME280;17439;48.092;11.842;2023-12-22T03:43:42;93995.75;;;3.66;78.86
30682;BME280;17439;48.092;11.842;2023-12-22T03:46:08;93985.81;;;3.67;79.03
30682;BME280;17439;48.092;11.842;2023-12-22T03:48:35;93971.78;;;3.70;79.02
30682;BME280;17439;48.092;11.842;2023-12-22T03:51:02;93989.94;;;3.73;78.92
30682;BME280;17439;48.092;11.842;2023-12-22T03:53:29;93986.97;;;3.74;78.83
30682;BME280;17439;48.092;11.842;2023-12-22T03:55:56;93987.75;;;3.75;78.95
30682;BME280;17439;48.092;11.842;2023-12-22T03:58:22;93988.22;;;3.77;78.86
30682;BME280;17439;48.092;11.842;2023-12-22T04:00:49;93994.09;;;3.79;78.99
30682;BME280;17439;48.092;11.842;2023-12-22T04:03:17;93984.28;;;3.74;78.85
30682;BME280;17439;48.092;11.842;2023-12-22T04:05:44;93978.50;;;3.81;79.01
30682;BME280;17439;48.092;11.842;2023-12-22T04:08:11;93989.72;;;3.83;78.97
30682;BME280;17439;48.092;11.842;2023-12-22T04:10:37;93976.81;;;3.85;78.92
30682;BME280;17439;48.092;11.842;2023-12-22T04:13:04;93970.03;;;3.88;79.08
30682;BME280;17439;48.092;11.842;2023-12-22T04:15:31;93974.00;;;3.90;78.79
30682;BME280;17439;48.092;11.842;2023-12-22T04:17:58;93969.13;;;3.92;78.72
30682;BME280;17439;48.092;11.842;2023-12-22T04:20:24;93964.22;;;3.94;78.90
30682;BME280;17439;48.092;11.842;2023-12-22T04:22:51;93977.03;;;3.97;78.55
30682;BME280;17439;48.092;11.842;2023-12-22T04:25:18;93982.09;;;3.99;78.68
30682;BME280;17439;48.092;11.842;2023-12-22T04:27:45;93973.75;;;4.00;79.21
30682;BME280;17439;48.092;11.842;2023-12-22T04:30:12;93988.63;;;4.07;79.73
30682;BME280;17439;48.092;11.842;2023-12-22T04:32:39;93986.31;;;4.14;80.05
30682;BME280;17439;48.092;11.842;2023-12-22T04:35:06;93987.78;;;4.20;80.46
30682;BME280;17439;48.092;11.842;2023-12-22T04:37:33;93989.13;;;4.31;80.49
30682;BME280;17439;48.092;11.842;2023-12-22T04:40:00;93973.84;;;4.41;80.69
30682;BME280;17439;48.092;11.842;2023-12-22T04:42:27;93976.41;;;4.46;81.12
30682;BME280;17439;48.092;11.842;2023-12-22T04:44:53;93966.00;;;4.53;81.30
30682;BME280;17439;48.092;11.842;2023-12-22T04:47:20;93970.19;;;4.68;80.68
30682;BME280;17439;48.092;11.842;2023-12-22T04:49:47;93969.75;;;4.75;80.74
30682;BME280;17439;48.092;11.842;2023-12-22T04:52:14;93971.66;;;4.83;80.46
30682;BME280;17439;48.092;11.842;2023-12-22T04:54:40;93977.09;;;4.92;80.62
30682;BME280;17439;48.092;11.842;2023-12-22T04:57:07;93978.19;;;4.99;80.13
30682;BME280;17439;48.092;11.842;2023-12-22T04:59:34;93974.47;;;5.09;79.58
30682;BME280;17439;48.092;11.842;2023-12-22T05:02:01;93980.47;;;5.15;79.66
30682;BME280;17439;48.092;11.842;2023-12-22T05:04:28;93970.84;;;5.22;79.12
30682;BME280;17439;48.092;11.842;2023-12-22T05:06:54;93967.84;;;5.24;79.23
30682;BME280;17439;48.092;11.842;2023-12-22T05:09:21;93966.91;;;5.29;79.23
30682;BME280;17439;48.092;11.842;2023-12-22T05:11:48;93959.47;;;5.34;78.83
30682;BME280;17439;48.092;11.842;2023-12-22T05:14:14;93958.06;;;5.37;79.13
30682;BME280;17439;48.092;11.842;2023-12-22T05:16:41;93959.81;;;5.41;79.11
30682;BME280;17439;48.092;11.842;2023-12-22T05:19:08;93959.03;;;5.50;78.56
30682;BME280;17439;48.092;11.842;2023-12-22T05:21:35;93956.81;;;5.52;78.43
30682;BME280;17439;48.092;11.842;2023-12-22T05:24:01;93964.75;;;5.57;78.28
30682;BME280;17439;48.092;11.842;2023-12-22T05:26:28;93981.03;;;5.60;78.91
30682;BME280;17439;48.092;11.842;2023-12-22T05:28:55;93984.03;;;5.68;78.74
30682;BME280;17439;48.092;11.842;2023-12-22T05:31:22;93984.69;;;5.73;78.82
30682;BME280;17439;48.092;11.842;2023-12-22T05:33:49;93996.88;;;5.79;79.08
30682;BME280;17439;48.092;11.842;2023-12-22T05:36:16;94011.75;;;5.86;79.36
30682;BME280;17439;48.092;11.842;2023-12-22T05:38:42;93990.72;;;5.96;78.69
30682;BME280;17439;48.092;11.842;2023-12-22T05:41:09;93999.75;;;6.01;79.19
30682;BME280;17439;48.092;11.842;2023-12-22T05:43:36;93996.41;;;6.04;78.92
30682;BME280;17439;48.092;11.842;2023-12-22T05:46:03;93991.38;;;6.11;79.25
30682;BME280;17439;48.092;11.842;2023-12-22T05:48:30;94003.53;;;6.17;78.87
30682;BME280;17439;48.092;11.842;2023-12-22T05:50:56;93982.81;;;6.17;79.21
30682;BME280;17439;48.092;11.842;2023-12-22T05:53:23;93992.44;;;6.27;78.46
30682;BME280;17439;48.092;11.842;2023-12-22T05:55:50;94010.81;;;6.25;79.19
30682;BME280;17439;48.092;11.842;2023-12-22T05:58:17;94011.59;;;6.34;78.19
30682;BME280;17439;48.092;11.842;2023-12-22T06:00:43;94035.50;;;6.36;78.07
30682;BME280;17439;48.092;11.842;2023-12-22T06:03:10;94027.59;;;6.31;77.98
30682;BME280;17439;48.092;11.842;2023-12-22T06:05:37;94043.41;;;6.32;77.57
30682;BME280;17439;48.092;11.842;2023-12-22T06:08:04;94055.44;;;6.26;78.08
30682;BME280;17439;48.092;11.842;2023-12-22T06:10:31;94061.78;;;6.22;78.57
30682;BME280;17439;48.092;11.842;2023-12-22T06:12:58;94066.53;;;6.16;78.49
30682;BME280;17439;48.092;11.842;2023-12-22T06:15:24;94057.84;;;6.19;78.11
30682;BME280;17439;48.092;11.842;2023-12-22T06:17:51;94063.66;;;6.12;77.91
30682;BME280;17439;48.092;11.842;2023-12-22T06:20:18;94096.63;;;6.09;76.53
30682;BME280;17439;48.092;11.842;2023-12-22T06:22:45;94091.88;;;6.06;75.83
30682;BME280;17439;48.092;11.842;2023-12-22T06:25:12;94082.66;;;5.98;75.99
30682;BME280;17439;48.092;11.842;2023-12-22T06:27:39;94071.06;;;5.89;76.30
30682;BME280;17439;48.092;11.842;2023-12-22T06:30:06;94078.50;;;5.84;76.89
30682;BME280;17439;48.092;11.842;2023-12-22T06:32:32;94091.94;;;5.75;77.43
30682;BME280;17439;48.092;11.842;2023-12-22T06:34:59;94107.91;;;5.71;77.80
30682;BME280;17439;48.092;11.842;2023-12-22T06:37:26;94096.03;;;5.63;78.08
30682;BME280;17439;48.092;11.842;2023-12-22T06:39:53;94076.53;;;5.58;78.51
30682;BME280;17439;48.092;11.842;2023-12-22T06:42:20;94088.88;;;5.59;78.83
30682;BME280;17439;48.092;11.842;2023-12-22T06:44:46;94071.47;;;5.56;79.13
30682;BME280;17439;48.092;11.842;2023-12-22T06:47:13;94083.34;;;5.55;79.05
30682;BME280;17439;48.092;11.842;2023-12-22T06:49:40;94079.38;;;5.53;79.63
30682;BME280;17439;48.092;11.842;2023-12-22T06:52:07;94084.59;;;5.49;80.02
30682;BME280;17439;48.092;11.842;2023-12-22T06:54:34;94080.97;;;5.54;80.17
30682;BME280;17439;48.092;11.842;2023-12-22T06:57:01;94088.72;;;5.55;80.43
30682;BME280;17439;48.092;11.842;2023-12-22T06:59:27;94092.66;;;5.58;80.73
30682;BME280;17439;48.092;11.842;2023-12-22T07:01:55;94093.75;;;5.48;80.19
30682;BME280;17439;48.092;11.842;2023-12-22T07:07:30;94107.09;;;5.62;81.10
30682;BME280;17439;48.092;11.842;2023-12-22T07:09:59;94096.81;;;5.64;81.16
30682;BME280;17439;48.092;11.842;2023-12-22T07:12:26;94087.63;;;5.65;81.44
30682;BME280;17439;48.092;11.842;2023-12-22T07:14:53;94093.19;;;5.69;81.66
30682;BME280;17439;48.092;11.842;2023-12-22T07:17:20;94099.69;;;5.76;82.13
30682;BME280;17439;48.092;11.842;2023-12-22T07:19:47;94105.38;;;5.84;82.00
30682;BME280;17439;48.092;11.842;2023-12-22T07:22:13;94088.97;;;5.94;81.51
30682;BME280;17439;48.092;11.842;2023-12-22T07:24:40;94117.97;;;5.97;81.75
30682;BME280;17439;48.092;11.842;2023-12-22T07:27:08;94102.00;;;6.09;81.17
30682;BME280;17439;48.092;11.842;2023-12-22T07:29:35;94094.88;;;6.22;79.01
30682;BME280;17439;48.092;11.842;2023-12-22T07:32:03;94086.63;;;6.10;79.08
30682;BME280;17439;48.092;11.842;2023-12-22T07:34:30;94137.13;;;6.13;77.06
30682;BME280;17439;48.092;11.842;2023-12-22T07:36:59;94123.03;;;6.07;76.86
30682;BME280;17439;48.092;11.842;2023-12-22T07:39:33;94127.91;;;5.96;76.83
30682;BME280;17439;48.092;11.842;2023-12-22T07:41:59;94176.63;;;5.95;77.09
30682;BME280;17439;48.092;11.842;2023-12-22T07:44:26;94162.19;;;5.82;77.37
30682;BME280;17439;48.092;11.842;2023-12-22T07:47:04;94183.69;;;5.73;77.92
30682;BME280;17439;48.092;11.842;2023-12-22T07:49:31;94166.44;;;5.74;77.25
30682;BME280;17439;48.092;11.842;2023-12-22T07:52:00;94163.41;;;5.67;75.92
30682;BME280;17439;48.092;11.842;2023-12-22T07:54:29;94161.31;;;5.55;75.78
30682;BME280;17439;48.092;11.842;2023-12-22T07:56:56;94158.25;;;5.48;75.32
30682;BME280;17439;48.092;11.842;2023-12-22T07:59:23;94158.09;;;5.44;75.01
30682;BME280;17439;48.092;11.842;2023-12-22T08:01:57;94150.91;;;5.31;75.78
30682;BME280;17439;48.092;11.842;2023-12-22T08:04:24;94129.22;;;5.19;76.62
30682;BME280;17439;48.092;11.842;2023-12-22T08:06:50;94164.25;;;5.14;77.37
30682;BME280;17439;48.092;11.842;2023-12-22T08:09:17;94200.56;;;5.34;76.06
30682;BME280;17439;48.092;11.842;2023-12-22T08:11:44;94223.47;;;5.31;76.66
30682;BME280;17439;48.092;11.842;2023-12-22T08:14:11;94270.13;;;5.58;69.56
30682;BME280;17439;48.092;11.842;2023-12-22T08:16:37;94217.31;;;5.31;70.79
30682;BME280;17439;48.092;11.842;2023-12-22T08:19:04;94253.41;;;5.16;71.58
30682;BME280;17439;48.092;11.842;2023-12-22T08:21:31;94264.63;;;4.95;72.69
30682;BME280;17439;48.092;11.842;2023-12-22T08:24:10;94263.97;;;4.76;73.78
30682;BME280;17439;48.092;11.842;2023-12-22T08:26:44;94258.38;;;4.63;74.59
30682;BME280;17439;48.092;11.842;2023-12-22T08:29:11;94263.16;;;4.52;75.40
30682;BME280;17439;48.092;11.842;2023-12-22T08:31:37;94261.97;;;4.45;76.23
30682;BME280;17439;48.092;11.842;2023-12-22T08:34:04;94268.03;;;4.36;76.71
30682;BME280;17439;48.092;11.842;2023-12-22T08:36:31;94271.31;;;4.33;77.72
30682;BME280;17439;48.092;11.842;2023-12-22T08:38:58;94273.00;;;4.29;78.52
30682;BME280;17439;48.092;11.842;2023-12-22T08:41:26;94249.38;;;4.31;78.88
30682;BME280;17439;48.092;11.842;2023-12-22T08:43:52;94256.22;;;4.38;79.70
30682;BME280;17439;48.092;11.842;2023-12-22T08:46:19;94260.47;;;4.39;80.32
30682;BME280;17439;48.092;11.842;2023-12-22T08:48:46;94256.59;;;4.45;81.21
30682;BME280;17439;48.092;11.842;2023-12-22T08:51:13;94252.13;;;4.54;81.77
30682;BME280;17439;48.092;11.842;2023-12-22T08:53:39;94241.75;;;4.61;82.36
30682;BME280;17439;48.092;11.842;2023-12-22T08:56:06;94251.50;;;4.71;82.99
30682;BME280;17439;48.092;11.842;2023-12-22T08:58:33;94248.25;;;4.83;83.36
30682;BME280;17439;48.092;11.842;2023-12-22T09:01:00;94251.69;;;4.97;83.33
30682;BME280;17439;48.092;11.842;2023-12-22T09:03:27;94265.56;;;5.13;83.35
30682;BME280;17439;48.092;11.842;2023-12-22T09:05:54;94282.84;;;5.21;83.65
30682;BME280;17439;48.092;11.842;2023-12-22T09:08:20;94271.22;;;5.34;83.84
30682;BME280;17439;48.092;11.842;2023-12-22T09:10:47;94255.22;;;5.52;83.38
30682;BME280;17439;48.092;11.842;2023-12-22T09:13:14;94260.97;;;5.59;83.28
30682;BME280;17439;48.092;11.842;2023-12-22T09:15:40;94264.50;;;5.68;83.35
30682;BME280;17439;48.092;11.842;2023-12-22T09:18:07;94259.50;;;5.84;82.43
30682;BME280;17439;48.092;11.842;2023-12-22T09:20:34;94249.22;;;5.86;82.52
30682;BME280;17439;48.092;11.842;2023-12-22T09:23:01;94244.00;;;5.90;82.49
30682;BME280;17439;48.092;11.842;2023-12-22T09:25:27;94247.78;;;6.11;80.96
30682;BME280;17439;48.092;11.842;2023-12-22T09:27:54;94259.47;;;6.15;81.70
30682;BME280;17439;48.092;11.842;2023-12-22T09:30:21;94235.56;;;6.14;82.14
30682;BME280;17439;48.092;11.842;2023-12-22T09:32:47;94239.91;;;6.24;82.65
30682;BME280;17439;48.092;11.842;2023-12-22T09:35:14;94241.50;;;6.33;82.35
30682;BME280;17439;48.092;11.842;2023-12-22T09:37:41;94253.53;;;6.36;82.00
30682;BME280;17439;48.092;11.842;2023-12-22T09:40:08;94258.16;;;6.44;82.47
30682;BME280;17439;48.092;11.842;2023-12-22T09:42:38;94253.72;;;6.48;82.86
30682;BME280;17439;48.092;11.842;2023-12-22T09:45:08;94256.09;;;6.50;82.47
30682;BME280;17439;48.092;11.842;2023-12-22T09:47:38;94259.94;;;6.58;82.28
30682;BME280;17439;48.092;11.842;2023-12-22T09:50:07;94267.84;;;6.63;81.73
30682;BME280;17439;48.092;11.842;2023-12-22T09:52:35;94271.81;;;6.74;81.72
30682;BME280;17439;48.092;11.842;2023-12-22T09:55:03;94262.03;;;6.78;80.70
30682;BME280;17439;48.092;11.842;2023-12-22T09:57:30;94276.44;;;6.82;80.90
30682;BME280;17439;48.092;11.842;2023-12-22T09:59:58;94260.44;;;6.95;80.47
30682;BME280;17439;48.092;11.842;2023-12-22T10:02:27;94275.19;;;6.97;80.86
30682;BME280;17439;48.092;11.842;2023-12-22T10:04:54;94269.50;;;6.99;80.77
30682;BME280;17439;48.092;11.842;2023-12-22T10:07:21;94258.06;;;7.11;78.67
30682;BME280;17439;48.092;11.842;2023-12-22T10:09:48;94253.63;;;7.06;79.54
30682;BME280;17439;48.092;11.842;2023-12-22T10:12:16;94254.25;;;7.03;79.78
30682;BME280;17439;48.092;11.842;2023-12-22T10:14:47;94251.25;;;7.04;79.56
30682;BME280;17439;48.092;11.842;2023-12-22T10:17:14;94249.50;;;7.00;77.46
30682;BME280;17439;48.092;11.842;2023-12-22T10:19:41;94237.44;;;7.06;78.29
30682;BME280;17439;48.092;11.842;2023-12-22T10:22:08;94251.09;;;7.01;76.90
30682;BME280;17439;48.092;11.842;2023-12-22T10:24:42;94245.56;;;6.97;77.16
30682;BME280;17439;48.092;11.842;2023-12-22T10:27:10;94245.53;;;6.88;76.58
30682;BME280;17439;48.092;11.842;2023-12-22T10:29:37;94233.97;;;6.79;76.38
30682;BME280;17439;48.092;11.842;2023-12-22T10:32:06;94251.88;;;6.75;76.59
30682;BME280;17439;48.092;11.842;2023-12-22T10:34:34;94264.53;;;6.66;76.35
30682;BME280;17439;48.092;11.842;2023-12-22T10:37:02;94247.56;;;6.57;76.74
30682;BME280;17439;48.092;11.842;2023-12-22T10:39:32;94242.97;;;6.48;76.11
30682;BME280;17439;48.092;11.842;2023-12-22T10:41:59;94239.31;;;6.44;76.65
30682;BME280;17439;48.092;11.842;2023-12-22T10:44:27;94231.88;;;6.41;77.05
30682;BME280;17439;48.092;11.842;2023-12-22T10:46:55;94233.25;;;6.30;77.60
30682;BME280;17439;48.092;11.842;2023-12-22T10:49:23;94234.03;;;6.22;77.67
30682;BME280;17439;48.092;11.842;2023-12-22T10:51:50;94222.31;;;6.17;78.31
30682;BME280;17439;48.092;11.842;2023-12-22T10:54:18;94211.53;;;6.17;78.27
30682;BME280;17439;48.092;11.842;2023-12-22T10:56:46;94197.13;;;6.13;78.06
30682;BME280;17439;48.092;11.842;2023-12-22T10:59:16;94187.13;;;6.05;78.47
30682;BME280;17439;48.092;11.842;2023-12-22T11:01:45;94179.38;;;6.04;79.04
30682;BME280;17439;48.092;11.842;2023-12-22T11:04:13;94178.09;;;6.01;79.24
30682;BME280;17439;48.092;11.842;2023-12-22T11:06:44;94199.91;;;5.99;79.83
30682;BME280;17439;48.092;11.842;2023-12-22T11:09:15;94187.91;;;5.97;79.95
30682;BME280;17439;48.092;11.842;2023-12-22T11:11:43;94195.97;;;5.97;80.35
30682;BME280;17439;48.092;11.842;2023-12-22T11:14:12;94205.63;;;5.98;80.45
30682;BME280;17439;48.092;11.842;2023-12-22T11:16:39;94192.44;;;5.88;80.27
30682;BME280;17439;48.092;11.842;2023-12-22T11:19:07;94202.13;;;5.97;81.20
30682;BME280;17439;48.092;11.842;2023-12-22T11:21:36;94203.59;;;6.04;81.10
30682;BME280;17439;48.092;11.842;2023-12-22T11:24:04;94207.88;;;6.05;81.57
30682;BME280;17439;48.092;11.842;2023-12-22T11:26:31;94208.97;;;6.12;81.53
30682;BME280;17439;48.092;11.842;2023-12-22T11:28:59;94205.53;;;6.21;81.75
30682;BME280;17439;48.092;11.842;2023-12-22T11:31:27;94202.69;;;6.26;82.05
30682;BME280;17439;48.092;11.842;2023-12-22T11:33:55;94178.94;;;6.28;81.83
30682;BME280;17439;48.092;11.842;2023-12-22T11:36:35;94195.25;;;6.31;82.14
30682;BME280;17439;48.092;11.842;2023-12-22T11:39:02;94192.91;;;6.47;81.82
30682;BME280;17439;48.092;11.842;2023-12-22T11:41:30;94185.00;;;6.51;81.90
30682;BME280;17439;48.092;11.842;2023-12-22T11:44:00;94179.94;;;6.67;80.63
30682;BME280;17439;48.092;11.842;2023-12-22T11:46:28;94190.53;;;6.63;81.53
30682;BME280;17439;48.092;11.842;2023-12-22T11:48:55;94190.56;;;6.72;81.50
30682;BME280;17439;48.092;11.842;2023-12-22T11:51:22;94188.31;;;6.74;81.78
30682;BME280;17439;48.092;11.842;2023-12-22T11:53:48;94200.06;;;6.78;81.34
30682;BME280;17439;48.092;11.842;2023-12-22T11:56:15;94185.00;;;6.86;80.30
30682;BME280;17439;48.092;11.842;2023-12-22T11:58:46;94175.66;;;6.83;79.88
30682;BME280;17439;48.092;11.842;2023-12-22T12:01:13;94199.28;;;6.86;80.43
30682;BME280;17439;48.092;11.842;2023-12-22T12:03:47;94190.84;;;6.97;78.94
30682;BME280;17439;48.092;11.842;2023-12-22T12:08:48;94173.75;;;6.84;80.44
30682;BME280;17439;48.092;11.842;2023-12-22T12:11:15;94175.34;;;6.85;80.15
30682;BME280;17439;48.092;11.842;2023-12-22T12:13:43;94189.91;;;6.84;80.61
30682;BME280;17439;48.092;11.842;2023-12-22T12:16:11;94170.28;;;6.92;79.82
30682;BME280;17439;48.092;11.842;2023-12-22T12:18:38;94170.72;;;6.85;80.63
30682;BME280;17439;48.092;11.842;2023-12-22T12:21:10;94162.66;;;6.85;80.54
30682;BME280;17439;48.092;11.842;2023-12-22T12:23:37;94171.53;;;6.86;81.06
30682;BME280;17439;48.092;11.842;2023-12-22T12:26:08;94163.78;;;6.84;81.24
30682;BME280;17439;48.092;11.842;2023-12-22T12:28:35;94154.56;;;6.85;81.40
30682;BME280;17439;48.092;11.842;2023-12-22T12:31:05;94146.81;;;6.84;81.52
30682;BME280;17439;48.092;11.842;2023-12-22T12:33:32;94132.69;;;6.87;81.78
30682;BME280;17439;48.092;11.842;2023-12-22T12:36:00;94144.59;;;6.86;81.91
30682;BME280;17439;48.092;11.842;2023-12-22T12:38:42;94136.19;;;6.87;81.96
30682;BME280;17439;48.092;11.842;2023-12-22T12:41:10;94144.56;;;6.95;81.18
30682;BME280;17439;48.092;11.842;2023-12-22T12:43:41;94136.97;;;6.97;81.19
30682;BME280;17439;48.092;11.842;2023-12-22T12:46:08;94137.13;;;7.00;80.84
30682;BME280;17439;48.092;11.842;2023-12-22T12:48:35;94122.22;;;7.03;80.62
30682;BME280;17439;48.092;11.842;2023-12-22T12:51:04;94130.78;;;7.05;80.61
30682;BME280;17439;48.092;11.842;2023-12-22T12:53:32;94124.44;;;7.01;80.88
30682;BME280;17439;48.092;11.842;2023-12-22T12:55:59;94118.59;;;6.99;81.20
30682;BME280;17439;48.092;11.842;2023-12-22T12:58:30;94126.19;;;6.97;81.09
30682;BME280;17439;48.092;11.842;2023-12-22T13:01:23;94105.13;;;6.99;81.58
30682;BME280;17439;48.092;11.842;2023-12-22T13:03:58;94110.50;;;6.99;81.31
30682;BME280;17439;48.092;11.842;2023-12-22T13:06:25;94102.56;;;7.02;81.47
30682;BME280;17439;48.092;11.842;2023-12-22T13:08:52;94104.47;;;7.02;81.66
30682;BME280;17439;48.092;11.842;2023-12-22T13:11:24;94082.75;;;6.98;81.72